カンクン の空港の天気 - METARとTAF

カンクン国際空港 ( MMUN / CUN ) - メキシコ キンタナ・ロー州カンクン
飛行場実況気象(Metar)
観測時間01/21 11:48 CST (01/21 17:48 UTC)
風向・風速北 4m/s
視程10km以上
天気現象
少しの雲 雲底高度 460m
全天の8割程度の雲 雲底高度 910m
気温25℃
湿度47%
気圧1022.2hPa
METARMMUN 211748Z 01007KT 7SM FEW015 BKN030 25/13 A3018 RMK SLP222 57011 912 8/800
過去の天気等 Google飛行場航空写真 Wunderground天気予報

過去48時間のMETAR

飛行場予報(TAF)
発表時間: 1/21 10:47 CST (1/21 16:47 UTC)
予報対象時間: 21日12時 CST ~ 22日18時 CST
風向・風速北東 6m/s
視程10km以上
全天の8割程度の雲 雲底高度 610m
21日14時 CST ~ 21日15時 CST に徐々に
全天の8割程度の雲 雲底高度 460m
21日21時 CST から
風向・風速東 6m/s
視程10km以上
全天の4割程度の雲 雲底高度 610m
全天の4割程度の雲 雲底高度 8530m
22日9時 CST から
風向・風速東 8m/s
視程10km以上
全天の4割程度の雲 雲底高度 460m
22日10時 CST ~ 22日11時 CST に徐々に
全天の8割程度の雲 雲底高度 460m
22日14時 CST ~ 22日18時 CST に一時的に
視程6440m
天気現象
全天の8割程度の雲 雲底高度 300m
全天を覆う雲 雲底高度 610m
TAF MMUN 211647Z 2118/2224 05012KT P6SM BKN020 TX24/2118Z TN15/2210Z
BECMG 2120/2121 BKN015
FM220300 08012KT P6SM SCT020 SCT280
FM221500 10015KT P6SM SCT015
BECMG 2216/2217 BKN015
TEMPO 2220/2224 4SM RA BKN010 OVC020